Time;durP1;ratioP1;P1;durP2;ratioP2;P2;SDS_P1;SDS_P2;PMS_P1;PMS_P2;Temp;Humidity;BMP_temperature;BMP_pressure;BME280_temperature;BME280_humidity;BME280_pressure;Samples;Min_cycle;Max_cycle;Signal;HPM_P1;HPM_P2
2023/09/07 00:00:37;;;;;;;7.45;3.03;;;20.20;99.00;;;;;;5002981;28;20396;-69
2023/09/07 00:03:04;;;;;;;7.93;3.00;;;20.20;99.00;;;;;;4965394;28;20053;-69
2023/09/07 00:05:31;;;;;;;9.55;3.42;;;20.10;99.00;;;;;;5007947;28;20058;-68
2023/09/07 00:07:57;;;;;;;8.57;3.30;;;20.10;99.00;;;;;;4967533;28;20058;-69
2023/09/07 00:10:25;;;;;;;9.40;3.25;;;20.00;99.00;;;;;;5003391;28;20502;-69
2023/09/07 00:12:52;;;;;;;10.20;3.10;;;20.00;99.10;;;;;;4967418;28;20049;-69
2023/09/07 00:15:21;;;;;;;9.77;3.40;;;20.00;99.20;;;;;;5009928;28;20639;-68
2023/09/07 00:17:47;;;;;;;8.10;3.45;;;19.90;99.30;;;;;;4967825;28;20049;-69
2023/09/07 00:20:14;;;;;;;15.10;3.40;;;19.90;99.30;;;;;;5016133;28;20054;-69
2023/09/07 00:22:40;;;;;;;10.07;3.20;;;19.90;99.60;;;;;;4968542;28;20061;-68
2023/09/07 00:25:07;;;;;;;9.30;3.42;;;19.80;99.40;;;;;;4970357;28;20054;-68
2023/09/07 00:27:34;;;;;;;9.18;3.13;;;19.80;99.80;;;;;;4964675;28;20057;-69
2023/09/07 00:30:00;;;;;;;11.52;3.45;;;19.80;99.60;;;;;;4991559;28;20062;-69
2023/09/07 00:32:27;;;;;;;8.40;2.90;;;19.70;99.60;;;;;;4964982;28;20064;-68
2023/09/07 00:34:53;;;;;;;8.27;3.20;;;19.70;99.70;;;;;;4958648;28;20058;-69
2023/09/07 00:37:19;;;;;;;9.15;3.33;;;19.70;99.70;;;;;;4984092;28;20515;-69
2023/09/07 00:39:45;;;;;;;9.60;3.55;;;19.60;99.80;;;;;;4959287;28;20049;-69
2023/09/07 00:42:11;;;;;;;7.72;3.20;;;19.60;99.90;;;;;;5002905;28;20171;-69
2023/09/07 00:44:37;;;;;;;10.57;3.40;;;19.50;99.90;;;;;;4961982;28;20061;-69
2023/09/07 00:47:05;;;;;;;8.18;3.28;;;19.50;99.90;;;;;;5003791;28;20054;-70
2023/09/07 00:49:31;;;;;;;7.85;2.97;;;19.50;99.90;;;;;;4973712;28;20053;-67
2023/09/07 00:51:57;;;;;;;8.15;3.00;;;19.40;99.90;;;;;;5003967;28;20519;-68
2023/09/07 00:54:23;;;;;;;8.85;3.38;;;19.40;99.90;;;;;;4949319;28;46634;-70
2023/09/07 00:56:50;;;;;;;9.65;3.90;;;19.40;99.90;;;;;;4978852;28;20059;-69
2023/09/07 00:59:16;;;;;;;8.75;3.38;;;19.40;99.90;;;;;;4956562;28;20057;-68
2023/09/07 01:01:43;;;;;;;9.07;3.47;;;19.30;99.90;;;;;;4985675;28;20823;-68
2023/09/07 01:04:17;;;;;;;7.75;3.38;;;19.30;99.90;;;;;;4960202;28;20109;-72
2023/09/07 01:07:14;;;;;;;9.82;3.30;;;19.20;99.90;;;;;;4970461;28;20054;-73
2023/09/07 01:09:49;;;;;;;8.48;3.15;;;19.20;99.90;;;;;;4932700;28;20093;-73
2023/09/07 01:12:25;;;;;;;10.00;3.65;;;19.20;99.90;;;;;;5007824;28;20057;-71
2023/09/07 01:14:52;;;;;;;11.07;3.30;;;19.20;99.90;;;;;;4915465;28;196442;-73
2023/09/07 01:17:21;;;;;;;9.23;3.40;;;19.10;99.90;;;;;;4983555;28;20054;-72
2023/09/07 01:19:52;;;;;;;9.85;3.83;;;19.10;99.90;;;;;;4977181;28;20045;-73
2023/09/07 01:22:19;;;;;;;;;;;19.00;99.90;;;;;;5010856;28;20045;-71
2023/09/07 01:24:46;;;;;;;9.75;3.72;;;19.00;99.90;;;;;;4981001;28;19929;-74
2023/09/07 01:27:15;;;;;;;9.80;3.53;;;18.90;99.90;;;;;;5005329;28;20065;-72
2023/09/07 01:29:41;;;;;;;9.77;3.65;;;18.90;99.90;;;;;;4944093;28;20054;-73
2023/09/07 01:32:09;;;;;;;9.70;3.75;;;18.80;99.90;;;;;;4985110;28;20055;-72
2023/09/07 01:34:37;;;;;;;11.02;3.72;;;18.80;99.90;;;;;;4974195;28;20053;-73
2023/09/07 01:37:03;;;;;;;11.88;3.75;;;18.80;99.90;;;;;;5008966;28;20049;-72
2023/09/07 01:39:29;;;;;;;10.43;3.20;;;18.70;99.90;;;;;;4961685;28;20053;-73
2023/09/07 01:41:55;;;;;;;9.30;3.60;;;18.70;99.90;;;;;;4987319;28;20451;-73
2023/09/07 01:44:21;;;;;;;9.57;3.80;;;18.70;99.90;;;;;;4960697;28;46489;-72
2023/09/07 01:46:48;;;;;;;11.18;3.45;;;18.60;99.90;;;;;;4984540;28;20091;-73
2023/09/07 01:49:18;;;;;;;9.55;3.58;;;18.60;99.90;;;;;;4961864;28;20057;-75
2023/09/07 01:51:44;;;;;;;9.35;3.83;;;18.60;99.90;;;;;;4983451;28;20061;-70
2023/09/07 01:54:10;;;;;;;10.90;3.83;;;18.50;99.90;;;;;;4943419;28;229178;-72
2023/09/07 01:56:37;;;;;;;11.52;4.15;;;18.50;99.90;;;;;;4985841;28;20050;-72
2023/09/07 01:59:03;;;;;;;9.85;4.18;;;18.40;99.90;;;;;;4944447;28;20053;-74
2023/09/07 02:01:31;;;;;;;9.05;3.92;;;18.40;99.90;;;;;;5002605;28;20842;-73
2023/09/07 02:03:57;;;;;;;9.70;3.75;;;18.40;99.90;;;;;;4976495;28;20056;-72
2023/09/07 02:06:24;;;;;;;9.13;4.20;;;18.30;99.90;;;;;;4984335;28;20046;-72
2023/09/07 02:08:50;;;;;;;10.70;3.75;;;18.30;99.90;;;;;;4944937;28;20080;-70
2023/09/07 02:11:16;;;;;;;8.00;3.60;;;18.30;99.90;;;;;;4984934;28;20046;-71
2023/09/07 02:13:43;;;;;;;8.80;3.78;;;18.20;99.90;;;;;;4943585;28;20046;-73
2023/09/07 02:16:09;;;;;;;8.85;4.10;;;18.20;99.90;;;;;;4984884;28;20062;-71
2023/09/07 02:18:37;;;;;;;8.75;3.90;;;18.20;99.90;;;;;;4950969;28;39152;-71
2023/09/07 02:21:04;;;;;;;12.50;4.15;;;18.20;99.90;;;;;;4985124;28;20058;-71
2023/09/07 02:23:32;;;;;;;11.77;4.47;;;18.20;99.90;;;;;;4950394;28;20527;-71
2023/09/07 02:25:59;;;;;;;11.20;4.10;;;18.20;99.90;;;;;;4992744;28;20061;-73
2023/09/07 02:28:25;;;;;;;11.40;3.95;;;18.20;99.90;;;;;;4964135;28;20046;-75
2023/09/07 02:30:52;;;;;;;10.65;4.15;;;18.10;99.90;;;;;;5003325;28;20472;-71
2023/09/07 02:33:18;;;;;;;10.13;4.10;;;18.10;99.90;;;;;;4958014;28;20050;-71
2023/09/07 02:35:44;;;;;;;8.98;3.75;;;18.10;99.90;;;;;;4981056;28;20408;-72
2023/09/07 02:38:10;;;;;;;8.00;3.53;;;18.00;99.90;;;;;;4950991;28;20053;-73
2023/09/07 02:40:43;;;;;;;8.73;3.70;;;18.00;99.90;;;;;;4993341;28;20046;-73
2023/09/07 02:43:10;;;;;;;12.48;3.90;;;18.00;99.90;;;;;;4949260;28;20050;-72
2023/09/07 02:45:37;;;;;;;10.75;4.75;;;17.90;99.90;;;;;;4983624;28;20065;-73
2023/09/07 02:48:03;;;;;;;8.30;3.90;;;17.90;99.90;;;;;;4952693;28;20077;-73
2023/09/07 02:50:32;;;;;;;9.93;4.10;;;17.80;99.90;;;;;;5016536;28;20496;-72
2023/09/07 02:52:59;;;;;;;8.43;3.80;;;17.80;99.90;;;;;;4952683;28;20049;-72
2023/09/07 02:55:27;;;;;;;9.23;3.88;;;17.70;99.90;;;;;;5007127;28;20077;-71
2023/09/07 02:57:55;;;;;;;11.88;4.75;;;17.70;99.90;;;;;;4962592;28;20054;-73
2023/09/07 03:00:21;;;;;;;8.93;4.10;;;17.60;99.90;;;;;;4989745;28;20415;-71
2023/09/07 03:02:48;;;;;;;10.48;3.80;;;17.50;99.90;;;;;;4947124;28;24080;-72
2023/09/07 03:05:17;;;;;;;10.40;4.10;;;17.50;99.90;;;;;;4976020;28;20050;-72
2023/09/07 03:07:45;;;;;;;8.45;4.30;;;17.40;99.90;;;;;;4949937;28;20038;-70
2023/09/07 03:10:12;;;;;;;9.45;4.13;;;17.40;99.90;;;;;;4992540;28;22005;-73
2023/09/07 03:12:38;;;;;;;11.65;4.10;;;17.30;99.90;;;;;;4937422;28;222241;-72
2023/09/07 03:15:05;;;;;;;8.27;3.90;;;17.30;99.90;;;;;;4979257;28;20053;-71
2023/09/07 03:17:31;;;;;;;9.55;3.90;;;17.30;99.90;;;;;;4950493;28;20050;-71
2023/09/07 03:19:57;;;;;;;10.90;4.35;;;17.20;99.90;;;;;;4992075;28;20038;-71
2023/09/07 03:22:24;;;;;;;11.63;4.30;;;17.10;99.90;;;;;;4980911;28;20088;-71
2023/09/07 03:24:53;;;;;;;11.43;4.32;;;17.10;99.90;;;;;;4964053;28;20423;-71
2023/09/07 03:27:20;;;;;;;9.32;4.60;;;17.10;99.90;;;;;;5005290;28;20050;-71
2023/09/07 03:29:49;;;;;;;9.80;4.20;;;17.00;99.90;;;;;;4979129;28;20056;-72
2023/09/07 03:32:15;;;;;;;9.32;4.22;;;17.00;99.90;;;;;;5001636;28;20070;-74
2023/09/07 03:34:41;;;;;;;10.13;4.40;;;17.00;99.90;;;;;;4974742;28;20056;-71
2023/09/07 03:37:11;;;;;;;8.15;3.80;;;16.90;99.90;;;;;;5003330;28;20093;-73
2023/09/07 03:39:37;;;;;;;10.05;4.32;;;16.90;99.90;;;;;;4963464;28;20053;-73
2023/09/07 03:42:03;;;;;;;9.75;4.20;;;16.90;99.90;;;;;;4999143;28;20057;-72
2023/09/07 03:44:30;;;;;;;8.85;4.60;;;16.80;99.90;;;;;;4977878;28;20064;-71
2023/09/07 03:46:56;;;;;;;9.82;5.07;;;16.80;99.90;;;;;;5006127;28;20140;-71
2023/09/07 03:49:22;;;;;;;11.73;5.18;;;16.80;99.90;;;;;;4979286;28;20797;-71
2023/09/07 03:51:48;;;;;;;9.25;4.25;;;16.80;99.90;;;;;;5001035;28;20056;-73
2023/09/07 03:54:14;;;;;;;11.60;4.78;;;16.80;99.90;;;;;;4962297;28;48496;-71
2023/09/07 03:56:40;;;;;;;11.02;5.13;;;16.80;99.90;;;;;;5003724;28;20054;-73
2023/09/07 03:59:06;;;;;;;13.18;5.20;;;16.80;99.90;;;;;;4953709;28;20053;-72
2023/09/07 04:01:32;;;;;;;10.60;5.13;;;16.80;99.90;;;;;;4986979;28;20065;-72
2023/09/07 04:03:59;;;;;;;9.77;5.00;;;16.70;99.90;;;;;;4949314;28;20079;-72
2023/09/07 04:06:25;;;;;;;12.15;5.10;;;16.80;99.90;;;;;;4984243;28;20065;-73
2023/09/07 04:08:51;;;;;;;10.63;4.90;;;16.80;99.90;;;;;;4945672;28;20073;-73
2023/09/07 04:11:17;;;;;;;11.07;5.03;;;16.70;99.90;;;;;;4983070;28;20149;-71
2023/09/07 04:13:43;;;;;;;10.73;4.80;;;16.70;99.90;;;;;;4948556;28;20050;-74
2023/09/07 04:16:09;;;;;;;9.60;4.40;;;16.70;99.90;;;;;;4998473;28;20057;-70
2023/09/07 04:18:36;;;;;;;10.55;4.75;;;16.70;99.90;;;;;;4956613;28;20050;-72
2023/09/07 04:21:08;;;;;;;11.25;4.40;;;16.70;99.90;;;;;;4974061;28;20057;-73
2023/09/07 04:23:35;;;;;;;12.18;5.45;;;16.70;99.90;;;;;;4953600;28;20038;-74
2023/09/07 04:26:08;;;;;;;9.38;5.30;;;16.60;99.90;;;;;;4976177;28;20073;-71
2023/09/07 04:28:34;;;;;;;10.68;5.53;;;16.60;99.90;;;;;;4932167;28;199111;-72
2023/09/07 04:31:02;;;;;;;10.50;5.55;;;16.60;99.90;;;;;;4983988;28;20451;-72
2023/09/07 04:33:31;;;;;;;9.65;4.32;;;16.60;99.90;;;;;;4950174;28;21656;-71
2023/09/07 04:36:13;;;;;;;10.30;5.32;;;16.60;99.90;;;;;;4991355;28;20050;-71
2023/09/07 04:38:40;;;;;;;11.00;5.30;;;16.50;99.90;;;;;;4950845;28;108869;-71
2023/09/07 04:41:07;;;;;;;12.43;5.35;;;16.50;99.90;;;;;;5005135;28;20080;-72
2023/09/07 04:43:33;;;;;;;11.48;6.00;;;16.50;99.90;;;;;;4966016;28;20061;-70
2023/09/07 04:45:59;;;;;;;12.15;5.35;;;16.50;99.90;;;;;;5005888;28;20050;-71
2023/09/07 04:48:26;;;;;;;10.43;4.97;;;16.40;99.90;;;;;;4972030;28;20045;-70
2023/09/07 04:51:03;;;;;;;11.23;5.05;;;16.40;99.90;;;;;;5007714;28;20054;-71
2023/09/07 04:53:32;;;;;;;10.23;5.50;;;16.40;99.90;;;;;;4948912;28;93033;-72
2023/09/07 04:55:58;;;;;;;11.65;5.65;;;16.40;99.90;;;;;;5006638;28;20391;-72
2023/09/07 04:58:24;;;;;;;10.27;5.78;;;16.30;99.90;;;;;;4964627;28;20092;-71
2023/09/07 05:00:51;;;;;;;10.23;5.72;;;16.40;99.90;;;;;;5001382;28;20053;-71
2023/09/07 05:03:17;;;;;;;12.50;5.68;;;16.30;99.90;;;;;;4962458;28;20045;-72
2023/09/07 05:05:43;;;;;;;10.52;5.50;;;16.30;99.90;;;;;;4995321;28;20053;-71
2023/09/07 05:08:10;;;;;;;13.00;6.47;;;16.30;99.90;;;;;;4957456;28;20053;-70
2023/09/07 05:10:37;;;;;;;11.40;6.30;;;16.40;99.90;;;;;;4993304;28;20054;-71
2023/09/07 05:13:04;;;;;;;12.10;6.13;;;16.30;99.90;;;;;;4959486;28;20050;-71
2023/09/07 05:15:30;;;;;;;13.05;6.50;;;16.30;99.90;;;;;;4980816;28;20073;-71
2023/09/07 05:17:56;;;;;;;10.20;6.10;;;16.40;99.90;;;;;;4949656;28;20062;-71
2023/09/07 05:20:22;;;;;;;11.90;5.80;;;16.30;99.90;;;;;;4994646;28;20053;-71
2023/09/07 05:22:48;;;;;;;14.18;6.47;;;16.40;99.90;;;;;;4948670;28;20093;-71
2023/09/07 05:25:14;;;;;;;12.07;6.75;;;16.40;99.90;;;;;;4993242;28;20061;-71
2023/09/07 05:27:40;;;;;;;12.75;6.57;;;16.40;99.90;;;;;;4945559;28;20055;-72
2023/09/07 05:30:07;;;;;;;13.00;6.70;;;16.50;99.90;;;;;;5012772;28;20072;-73
2023/09/07 05:32:33;;;;;;;13.18;6.90;;;16.60;99.90;;;;;;4966186;28;20049;-72
2023/09/07 05:34:59;;;;;;;10.55;6.00;;;16.60;99.90;;;;;;5002864;28;20038;-73
2023/09/07 05:37:28;;;;;;;12.75;6.53;;;16.60;99.90;;;;;;4979148;28;20045;-70
2023/09/07 05:39:54;;;;;;;10.90;6.85;;;16.90;99.90;;;;;;4988090;28;20046;-72
2023/09/07 05:42:20;;;;;;;13.07;5.93;;;17.40;99.90;;;;;;4999043;28;20050;-71
2023/09/07 05:44:46;;;;;;;10.48;5.82;;;18.00;99.90;;;;;;4927376;28;20041;-71
2023/09/07 05:47:12;;;;;;;11.25;5.70;;;18.50;99.90;;;;;;4983403;28;20084;-73
2023/09/07 05:49:38;;;;;;;10.25;5.55;;;18.90;99.90;;;;;;4955586;28;20087;-73
2023/09/07 05:52:05;;;;;;;13.50;5.90;;;19.40;99.90;;;;;;4986090;28;20065;-71
2023/09/07 05:54:31;;;;;;;10.25;5.60;;;19.70;99.90;;;;;;4931929;28;63827;-71
2023/09/07 05:56:57;;;;;;;12.95;5.40;;;20.10;99.90;;;;;;4985638;28;20054;-72
2023/09/07 05:59:23;;;;;;;13.00;5.90;;;20.40;99.90;;;;;;4946636;28;20049;-72
2023/09/07 06:01:49;;;;;;;14.18;5.70;;;20.60;99.90;;;;;;4986649;28;20046;-72
2023/09/07 06:04:15;;;;;;;16.23;5.63;;;20.90;99.90;;;;;;4958097;28;20047;-71
2023/09/07 06:06:41;;;;;;;9.52;5.25;;;21.20;99.90;;;;;;4990393;28;20057;-72
2023/09/07 06:09:07;;;;;;;10.20;5.15;;;21.50;99.90;;;;;;4955321;28;20053;-71
2023/09/07 06:11:34;;;;;;;10.38;5.50;;;21.70;99.90;;;;;;4997659;28;20125;-72
2023/09/07 06:14:00;;;;;;;10.45;5.35;;;22.00;99.90;;;;;;4957497;28;20054;-72
2023/09/07 06:16:26;;;;;;;11.13;5.35;;;22.20;99.90;;;;;;4996077;28;20138;-72
2023/09/07 06:18:52;;;;;;;11.13;5.05;;;22.20;99.90;;;;;;4960589;28;20092;-71
2023/09/07 06:21:18;;;;;;;10.77;5.30;;;22.50;99.90;;;;;;4989684;28;20419;-71
2023/09/07 06:23:45;;;;;;;12.07;5.47;;;22.80;99.90;;;;;;4936999;28;20055;-72
2023/09/07 06:26:11;;;;;;;12.95;5.05;;;23.10;99.90;;;;;;4986921;28;20054;-71
2023/09/07 06:28:37;;;;;;;13.93;5.40;;;23.40;99.60;;;;;;4965980;28;20053;-72
2023/09/07 06:31:03;;;;;;;10.52;4.95;;;23.70;99.50;;;;;;5009753;28;20061;-71
2023/09/07 06:33:29;;;;;;;9.18;5.05;;;23.90;99.10;;;;;;4975836;28;20050;-72
2023/09/07 06:35:57;;;;;;;15.13;5.20;;;24.20;99.00;;;;;;5014517;28;20029;-72
2023/09/07 06:38:23;;;;;;;12.77;5.03;;;24.30;98.10;;;;;;4975667;28;20049;-71
2023/09/07 06:40:50;;;;;;;11.70;4.80;;;24.50;98.20;;;;;;5015045;28;20076;-71
2023/09/07 06:43:16;;;;;;;9.30;4.90;;;24.60;98.00;;;;;;4965246;28;20081;-69
2023/09/07 06:45:43;;;;;;;9.30;4.65;;;24.70;97.80;;;;;;4984429;28;20432;-72
2023/09/07 06:48:09;;;;;;;12.52;4.60;;;24.80;97.50;;;;;;4941980;28;20051;-72
2023/09/07 06:50:35;;;;;;;11.85;4.70;;;25.00;97.20;;;;;;4989747;28;20054;-71
2023/09/07 06:53:02;;;;;;;11.05;4.57;;;25.20;97.00;;;;;;4933565;28;168358;-71
2023/09/07 06:55:29;;;;;;;15.60;4.70;;;25.40;96.60;;;;;;4985922;28;20061;-71
2023/09/07 06:57:55;;;;;;;12.25;4.20;;;25.60;96.70;;;;;;4953805;28;20069;-69
2023/09/07 07:00:21;;;;;;;9.82;4.53;;;25.80;96.30;;;;;;4999604;28;20058;-71
2023/09/07 07:02:48;;;;;;;16.08;4.65;;;26.00;95.80;;;;;;4954668;28;20735;-71
2023/09/07 07:05:14;;;;;;;10.90;3.95;;;26.30;95.70;;;;;;5011420;28;20089;-71
2023/09/07 07:07:40;;;;;;;11.10;4.00;;;26.40;95.40;;;;;;4949388;28;20047;-71
2023/09/07 07:10:07;;;;;;;9.55;3.95;;;26.60;95.10;;;;;;4996942;28;20042;-71
2023/09/07 07:12:34;;;;;;;11.68;4.07;;;26.80;95.10;;;;;;4945908;28;20324;-71
2023/09/07 07:15:02;;;;;;;10.70;4.30;;;26.90;94.50;;;;;;5004856;28;20057;-71
2023/09/07 07:17:28;;;;;;;12.15;4.25;;;26.90;94.30;;;;;;4987414;28;20491;-71
2023/09/07 07:19:54;;;;;;;10.48;4.32;;;27.00;93.90;;;;;;4989110;28;20076;-71
2023/09/07 07:22:20;;;;;;;10.98;3.60;;;27.10;93.80;;;;;;4986558;28;20065;-71
2023/09/07 07:24:46;;;;;;;8.52;3.97;;;27.30;93.60;;;;;;4963914;28;20057;-73
2023/09/07 07:27:12;;;;;;;10.50;3.60;;;27.50;93.40;;;;;;4986686;28;20057;-71
2023/09/07 07:29:39;;;;;;;9.88;4.40;;;27.70;93.30;;;;;;4959293;28;20096;-71
2023/09/07 07:32:05;;;;;;;11.32;3.60;;;27.80;92.60;;;;;;5004381;28;20076;-71
2023/09/07 07:34:31;;;;;;;10.50;3.70;;;27.90;92.10;;;;;;4979864;28;20053;-70
2023/09/07 07:36:57;;;;;;;11.32;4.00;;;28.00;92.10;;;;;;5008431;28;20058;-71
2023/09/07 07:39:23;;;;;;;9.20;3.10;;;28.20;92.20;;;;;;4951417;28;20050;-71
2023/09/07 07:41:49;;;;;;;11.85;3.53;;;28.40;91.70;;;;;;4984632;28;20054;-71
2023/09/07 07:44:15;;;;;;;9.52;3.42;;;28.40;91.60;;;;;;4956038;28;20050;-71
2023/09/07 07:46:41;;;;;;;11.15;3.47;;;28.50;90.30;;;;;;5008550;28;20612;-71
2023/09/07 07:49:09;;;;;;;8.00;3.50;;;28.60;90.30;;;;;;4970274;28;20049;-70
2023/09/07 07:51:35;;;;;;;10.70;3.83;;;28.70;90.50;;;;;;5000497;28;20061;-71
2023/09/07 07:54:01;;;;;;;8.02;3.30;;;28.80;90.60;;;;;;4941663;28;23485;-71
2023/09/07 07:56:27;;;;;;;10.45;3.47;;;28.70;90.10;;;;;;4991617;28;20053;-72
2023/09/07 07:58:54;;;;;;;10.95;3.50;;;28.90;90.10;;;;;;4965027;28;20042;-74
2023/09/07 08:01:21;;;;;;;9.57;3.53;;;29.10;90.30;;;;;;5002021;28;20057;-71
2023/09/07 08:03:47;;;;;;;9.07;3.33;;;29.30;89.10;;;;;;4965867;28;20423;-71
2023/09/07 08:06:13;;;;;;;9.45;3.13;;;29.60;89.40;;;;;;5007290;28;20072;-71
2023/09/07 08:08:39;;;;;;;9.45;3.53;;;29.90;89.40;;;;;;4967658;28;20045;-71
2023/09/07 08:11:06;;;;;;;11.15;3.75;;;30.20;88.80;;;;;;5002865;28;20060;-72
2023/09/07 08:13:34;;;;;;;12.50;3.33;;;30.40;87.80;;;;;;4966795;28;20049;-71
2023/09/07 08:16:04;;;;;;;8.55;3.20;;;30.50;87.20;;;;;;5005003;28;20050;-74
2023/09/07 08:18:33;;;;;;;8.88;3.15;;;30.70;86.10;;;;;;4979296;28;20083;-72
2023/09/07 08:21:00;;;;;;;9.68;3.30;;;30.80;87.20;;;;;;5011601;28;20049;-71
2023/09/07 08:23:26;;;;;;;8.75;3.08;;;31.10;86.60;;;;;;4973394;28;20064;-71
2023/09/07 08:25:53;;;;;;;10.60;3.30;;;31.30;86.50;;;;;;5000377;28;20054;-71
2023/09/07 08:28:20;;;;;;;10.15;3.17;;;31.30;84.80;;;;;;4966462;28;20061;-71
2023/09/07 08:30:49;;;;;;;9.48;3.20;;;31.60;84.70;;;;;;5014807;28;20420;-73
2023/09/07 08:33:16;;;;;;;9.65;3.20;;;31.50;84.00;;;;;;4962452;28;20145;-72
2023/09/07 08:35:43;;;;;;;8.88;3.10;;;31.60;84.10;;;;;;4995818;28;20546;-72
2023/09/07 08:38:10;;;;;;;8.15;3.20;;;32.00;83.60;;;;;;4950002;28;20054;-72
2023/09/07 08:40:40;;;;;;;9.43;3.15;;;32.30;82.70;;;;;;5001256;28;20046;-73
2023/09/07 08:43:12;;;;;;;8.75;3.10;;;32.00;81.20;;;;;;4963583;28;20061;-72
2023/09/07 08:45:45;;;;;;;8.35;3.13;;;32.20;82.10;;;;;;4996759;28;20443;-71
2023/09/07 08:48:17;;;;;;;8.98;3.22;;;32.30;80.70;;;;;;4956318;28;20550;-71
2023/09/07 08:50:49;;;;;;;11.55;3.13;;;32.50;81.50;;;;;;4981148;28;20062;-71
2023/09/07 08:53:20;;;;;;;9.57;3.55;;;32.80;81.20;;;;;;4923176;28;71385;-70
2023/09/07 08:55:46;;;;;;;8.07;2.97;;;33.10;80.50;;;;;;4970403;28;20452;-72
2023/09/07 08:58:13;;;;;;;7.65;2.97;;;33.30;80.00;;;;;;4952559;28;20088;-72
2023/09/07 09:00:42;;;;;;;8.13;3.03;;;33.50;79.40;;;;;;4988573;28;20042;-72
2023/09/07 09:03:10;;;;;;;10.48;3.03;;;33.50;79.50;;;;;;4940861;28;20630;-71
2023/09/07 09:05:39;;;;;;;11.55;3.00;;;33.60;79.10;;;;;;4976453;28;20411;-71
2023/09/07 09:08:05;;;;;;;7.95;3.17;;;33.50;77.50;;;;;;4947670;28;20061;-72
2023/09/07 09:10:32;;;;;;;10.63;3.00;;;33.60;78.10;;;;;;4984894;28;20054;-72
2023/09/07 09:13:01;;;;;;;9.93;3.60;;;33.90;78.40;;;;;;4948585;28;20523;-72
2023/09/07 09:15:27;;;;;;;8.25;3.10;;;33.90;76.20;;;;;;5010840;28;20065;-73
2023/09/07 09:17:53;;;;;;;10.52;3.15;;;33.70;77.00;;;;;;4969724;28;20076;-74
2023/09/07 09:20:29;;;;;;;8.57;2.88;;;34.10;76.50;;;;;;5007165;28;20066;-72
2023/09/07 09:22:56;;;;;;;11.07;2.97;;;34.50;74.80;;;;;;4967449;28;20503;-72
2023/09/07 09:25:22;;;;;;;11.32;3.25;;;34.80;76.60;;;;;;4999382;28;20054;-72
2023/09/07 09:27:48;;;;;;;13.55;3.33;;;35.20;75.50;;;;;;4950845;28;20055;-72
2023/09/07 09:30:16;;;;;;;7.55;2.97;;;35.60;76.20;;;;;;4982940;28;20050;-71
2023/09/07 09:32:43;;;;;;;10.95;2.95;;;35.80;74.70;;;;;;4949431;28;20058;-72
2023/09/07 09:35:09;;;;;;;8.93;3.10;;;35.90;74.80;;;;;;4979809;28;20058;-72
2023/09/07 09:37:48;;;;;;;8.05;3.05;;;36.20;73.80;;;;;;4952646;28;20059;-75
2023/09/07 09:40:16;;;;;;;7.10;2.80;;;36.70;73.70;;;;;;5019995;28;20057;-73
2023/09/07 09:42:43;;;;;;;9.32;3.15;;;37.10;74.50;;;;;;4965004;28;20054;-73
2023/09/07 09:45:11;;;;;;;8.65;3.20;;;36.90;73.70;;;;;;5002643;28;20054;-72
2023/09/07 09:47:40;;;;;;;10.95;3.40;;;37.00;73.50;;;;;;4948331;28;20050;-73
2023/09/07 09:50:09;;;;;;;8.52;3.10;;;36.80;72.70;;;;;;4955497;28;20535;-72
2023/09/07 09:52:36;;;;;;;7.82;2.78;;;36.60;72.50;;;;;;4937209;28;43223;-71
2023/09/07 09:55:07;;;;;;;8.02;2.90;;;36.80;71.30;;;;;;5016450;28;20046;-73
2023/09/07 09:57:35;;;;;;;7.82;2.90;;;37.00;70.80;;;;;;4976641;28;20053;-73
2023/09/07 10:00:17;;;;;;;7.60;2.95;;;37.40;71.00;;;;;;5009109;28;20051;-72
2023/09/07 10:02:46;;;;;;;8.43;2.92;;;37.50;70.90;;;;;;4960996;28;20065;-73
2023/09/07 10:05:14;;;;;;;;;;;37.70;70.60;;;;;;5002937;28;20061;-71
2023/09/07 10:07:44;;;;;;;7.72;2.83;;;38.00;70.30;;;;;;4950533;28;19930;-72
2023/09/07 10:10:14;;;;;;;9.75;3.08;;;38.10;70.10;;;;;;4990695;28;20058;-73
2023/09/07 10:12:42;;;;;;;9.98;3.00;;;38.30;70.70;;;;;;4952060;28;20065;-73
2023/09/07 10:15:27;;;;;;;8.13;2.90;;;38.20;70.50;;;;;;4966913;28;20606;-73
2023/09/07 10:18:13;;;;;;;7.78;2.70;;;37.80;70.40;;;;;;4948655;28;20152;-73
2023/09/07 10:20:55;;;;;;;8.70;3.20;;;37.70;69.30;;;;;;4992813;28;20057;-73
2023/09/07 10:23:23;;;;;;;9.93;3.13;;;37.70;69.40;;;;;;4951659;28;20554;-73
2023/09/07 10:25:51;;;;;;;8.35;2.90;;;37.60;70.10;;;;;;4993089;28;20050;-72
2023/09/07 10:28:25;;;;;;;7.38;3.08;;;37.60;69.40;;;;;;4944820;28;20058;-72
2023/09/07 10:31:05;;;;;;;10.48;3.00;;;37.20;69.50;;;;;;4992150;28;20496;-73
2023/09/07 10:33:35;;;;;;;9.48;3.03;;;37.70;69.70;;;;;;4959220;28;20511;-73
2023/09/07 10:36:03;;;;;;;8.27;2.83;;;37.70;69.10;;;;;;4992761;28;20053;-72
2023/09/07 10:38:31;;;;;;;9.40;2.90;;;37.60;68.50;;;;;;4957944;28;20507;-73
2023/09/07 10:40:59;;;;;;;9.15;2.90;;;37.90;68.50;;;;;;5007563;28;20061;-73
2023/09/07 10:43:30;;;;;;;8.63;2.63;;;38.00;68.90;;;;;;4977583;28;20042;-73
2023/09/07 10:45:58;;;;;;;7.95;3.03;;;37.90;68.90;;;;;;5000092;28;20047;-72
2023/09/07 10:48:29;;;;;;;9.65;3.13;;;37.70;68.90;;;;;;4964248;28;20057;-73
2023/09/07 10:50:56;;;;;;;9.85;2.90;;;37.80;68.70;;;;;;5004010;28;20054;-72
2023/09/07 10:53:31;;;;;;;9.38;3.10;;;37.70;68.70;;;;;;4961181;28;87231;-72
2023/09/07 10:55:59;;;;;;;8.55;2.80;;;38.10;68.10;;;;;;5008361;28;20060;-72
2023/09/07 10:58:31;;;;;;;11.32;3.15;;;38.20;69.40;;;;;;4963834;28;20070;-76
2023/09/07 11:00:57;;;;;;;8.82;3.35;;;38.40;68.40;;;;;;4994106;28;20054;-73
2023/09/07 11:03:27;;;;;;;8.38;3.40;;;38.40;67.80;;;;;;4953624;28;20486;-72
2023/09/07 11:06:01;;;;;;;11.75;3.20;;;38.60;68.20;;;;;;4979916;28;20065;-72
2023/09/07 11:08:29;;;;;;;8.38;2.70;;;38.30;66.60;;;;;;4940914;28;20058;-74
2023/09/07 11:10:56;;;;;;;9.67;3.00;;;38.40;68.20;;;;;;4986864;28;20069;-72
2023/09/07 11:13:24;;;;;;;10.82;3.10;;;38.60;66.90;;;;;;4957751;28;20414;-73
2023/09/07 11:15:54;;;;;;;9.73;3.05;;;38.40;66.30;;;;;;4991359;28;20058;-73
2023/09/07 11:18:21;;;;;;;11.52;3.08;;;38.20;67.00;;;;;;4949939;28;20068;-73
2023/09/07 11:20:49;;;;;;;8.60;3.30;;;38.00;66.20;;;;;;4984886;28;20051;-74
2023/09/07 11:23:17;;;;;;;9.27;3.00;;;37.60;67.40;;;;;;4955523;28;20049;-75
2023/09/07 11:25:43;;;;;;;10.25;2.95;;;37.70;67.50;;;;;;5006722;28;20057;-73
2023/09/07 11:28:11;;;;;;;9.35;3.25;;;37.90;67.00;;;;;;4969318;28;20056;-75
2023/09/07 11:30:48;;;;;;;10.10;3.60;;;38.00;66.80;;;;;;5012816;28;20061;-73
2023/09/07 11:33:15;;;;;;;7.53;2.95;;;37.70;66.30;;;;;;4973826;28;20048;-76
2023/09/07 11:35:41;;;;;;;10.18;2.80;;;37.90;66.80;;;;;;5010531;28;20054;-75
2023/09/07 11:38:10;;;;;;;9.38;2.70;;;38.10;67.50;;;;;;4968539;28;20054;-75
2023/09/07 11:40:37;;;;;;;7.65;2.60;;;38.40;66.80;;;;;;4997047;28;20057;-77
2023/09/07 11:43:03;;;;;;;8.00;2.53;;;38.50;66.10;;;;;;4955180;28;20148;-73
2023/09/07 11:45:29;;;;;;;9.05;2.65;;;38.50;65.50;;;;;;5007148;28;20061;-74
2023/09/07 11:47:55;;;;;;;8.50;2.70;;;38.80;66.50;;;;;;4966122;28;20049;-74
2023/09/07 11:50:24;;;;;;;8.27;2.70;;;39.20;66.00;;;;;;5009616;28;20064;-74
2023/09/07 11:52:51;;;;;;;8.50;2.65;;;39.50;65.30;;;;;;4955743;28;20047;-74
2023/09/07 11:55:17;;;;;;;9.80;2.72;;;39.70;64.70;;;;;;5000065;28;20065;-73
2023/09/07 11:57:44;;;;;;;7.70;2.60;;;39.00;64.20;;;;;;4973781;28;20554;-73
2023/09/07 12:00:11;;;;;;;11.55;2.50;;;39.30;65.60;;;;;;4990677;28;25645;-73
2023/09/07 12:02:40;;;;;;;8.48;2.80;;;39.60;65.70;;;;;;4972760;28;20085;-74
2023/09/07 12:05:08;;;;;;;8.32;2.60;;;40.00;63.00;;;;;;4975131;28;50980;-74
2023/09/07 12:07:36;;;;;;;10.73;2.70;;;40.10;62.80;;;;;;4975017;28;21003;-74
2023/09/07 12:10:02;;;;;;;8.55;2.85;;;39.90;61.00;;;;;;4969012;28;231300;-75
2023/09/07 12:12:28;;;;;;;10.02;2.72;;;39.20;61.10;;;;;;4977842;28;20053;-74
2023/09/07 12:14:56;;;;;;;9.27;2.53;;;39.30;61.90;;;;;;5000215;28;188804;-74
2023/09/07 12:17:23;;;;;;;9.90;2.55;;;39.20;61.90;;;;;;5001125;28;20055;-75
2023/09/07 12:19:50;;;;;;;7.28;2.75;;;39.40;62.40;;;;;;4953034;28;245400;-75
2023/09/07 12:22:16;;;;;;;11.48;2.90;;;39.60;60.40;;;;;;5001350;28;20046;-75
2023/09/07 12:24:43;;;;;;;9.98;2.72;;;39.60;60.70;;;;;;4944844;28;149486;-75
2023/09/07 12:27:09;;;;;;;11.27;2.83;;;39.30;60.70;;;;;;4982333;28;20073;-74
2023/09/07 12:29:35;;;;;;;10.70;2.72;;;39.10;61.50;;;;;;4941728;28;119922;-76
2023/09/07 12:32:02;;;;;;;8.20;2.85;;;39.10;61.00;;;;;;4984030;28;20403;-74
2023/09/07 12:34:28;;;;;;;9.13;2.45;;;38.80;61.10;;;;;;4956462;28;152265;-73
2023/09/07 12:36:54;;;;;;;9.95;2.70;;;38.60;60.10;;;;;;4983937;28;20043;-74
2023/09/07 12:39:20;;;;;;;11.65;2.75;;;38.20;60.60;;;;;;4951121;28;165927;-74
2023/09/07 12:41:46;;;;;;;7.50;2.63;;;38.30;61.40;;;;;;4984023;28;20081;-74
2023/09/07 12:44:12;;;;;;;10.38;2.70;;;38.50;61.50;;;;;;4949709;28;114894;-74